Time;durP1;ratioP1;P1;durP2;ratioP2;P2;SDS_P1;SDS_P2;PMS_P1;PMS_P2;Temp;Humidity;BMP_temperature;BMP_pressure;BME280_temperature;BME280_humidity;BME280_pressure;Samples;Min_cycle;Max_cycle;Signal;HPM_P1;HPM_P2
2021/04/02 00:00:48;;;;;;;8.40;3.78;;;;;;;11.74;68.50;96265.47;5109816;28;20052;-68
2021/04/02 00:03:18;;;;;;;9.82;3.17;;;;;;;11.69;68.59;96265.66;5110382;28;20035;-68
2021/04/02 00:05:44;;;;;;;10.68;3.53;;;;;;;11.62;68.68;96267.28;5109936;28;20047;-68
2021/04/02 00:08:11;;;;;;;10.50;3.70;;;;;;;11.57;69.05;96270.97;5110005;28;20044;-68
2021/04/02 00:10:47;;;;;;;11.32;3.50;;;;;;;11.59;68.92;96263.28;5110239;28;20040;-68
2021/04/02 00:13:14;;;;;;;9.65;3.55;;;;;;;11.61;69.42;96260.22;5109614;28;20105;-68
2021/04/02 00:15:41;;;;;;;7.78;3.70;;;;;;;11.54;69.62;96254.47;5110742;28;20039;-68
2021/04/02 00:18:08;;;;;;;8.50;3.60;;;;;;;11.43;70.28;96262.19;5108250;28;20051;-69
2021/04/02 00:20:35;;;;;;;10.85;3.80;;;;;;;11.36;70.66;96256.44;5110819;28;20044;-68
2021/04/02 00:23:01;;;;;;;12.68;3.95;;;;;;;11.37;70.66;96252.59;5109629;28;20040;-68
2021/04/02 00:25:28;;;;;;;13.45;4.50;;;;;;;11.29;70.55;96248.78;5110412;28;20051;-68
2021/04/02 00:27:54;;;;;;;8.52;4.07;;;;;;;11.30;70.69;96244.13;5109746;28;20552;-68
2021/04/02 00:30:24;;;;;;;10.38;3.67;;;;;;;11.21;70.92;96242.22;5109906;28;20040;-68
2021/04/02 00:32:50;;;;;;;11.07;4.35;;;;;;;11.23;71.00;96239.97;5109923;28;20055;-68
2021/04/02 00:35:17;;;;;;;8.60;3.38;;;;;;;11.28;70.61;96247.19;5109383;28;20047;-68
2021/04/02 00:37:43;;;;;;;12.07;4.20;;;;;;;11.31;70.65;96241.06;5110267;28;20040;-68
2021/04/02 00:40:14;;;;;;;13.55;4.20;;;;;;;11.31;70.11;96235.63;5109368;28;20066;-68
2021/04/02 00:42:41;;;;;;;13.00;3.70;;;;;;;11.34;70.42;96239.63;5114354;28;20043;-68
2021/04/02 00:45:08;;;;;;;8.85;3.60;;;;;;;11.34;70.04;96234.97;5112670;28;20520;-69
2021/04/02 00:47:34;;;;;;;11.18;3.50;;;;;;;11.32;70.08;96236.41;5113661;28;20047;-68
2021/04/02 00:50:00;;;;;;;13.15;4.45;;;;;;;11.14;70.75;96236.47;5133547;27;20563;-68
2021/04/02 00:52:26;;;;;;;11.25;4.75;;;;;;;11.10;71.11;96227.34;5123196;27;20520;-68
2021/04/02 00:54:52;;;;;;;17.67;4.65;;;;;;;11.11;71.10;96237.09;5133816;27;20202;-68
2021/04/02 00:57:18;;;;;;;9.63;4.30;;;;;;;10.96;71.54;96234.88;5128220;27;20067;-68
2021/04/02 00:59:45;;;;;;;12.93;5.28;;;;;;;10.82;72.32;96234.28;5113782;28;20123;-68
2021/04/02 01:02:11;;;;;;;12.15;4.50;;;;;;;10.86;71.94;96229.81;5112217;28;20513;-68
2021/04/02 01:04:37;;;;;;;14.48;4.40;;;;;;;10.90;71.94;96228.00;5113633;28;20126;-68
2021/04/02 01:07:03;;;;;;;10.73;4.53;;;;;;;10.94;71.81;96237.16;5112039;28;20039;-69
2021/04/02 01:09:29;;;;;;;9.50;4.38;;;;;;;10.97;71.34;96236.50;5113727;28;20043;-68
2021/04/02 01:11:55;;;;;;;8.57;4.07;;;;;;;10.97;71.08;96233.78;5112688;28;20091;-68
2021/04/02 01:14:22;;;;;;;11.98;4.68;;;;;;;10.96;70.91;96229.44;5113255;28;20058;-68
2021/04/02 01:16:49;;;;;;;12.13;4.93;;;;;;;10.92;70.79;96234.75;5112466;28;20039;-68
2021/04/02 01:19:23;;;;;;;14.15;5.05;;;;;;;10.94;70.74;96237.16;5111961;28;20035;-68
2021/04/02 01:21:54;;;;;;;13.50;5.35;;;;;;;10.94;70.62;96242.59;5127337;27;20067;-68
2021/04/02 01:24:37;;;;;;;13.45;6.22;;;;;;;10.92;70.49;96233.94;5132560;27;20089;-68
2021/04/02 01:27:21;;;;;;;13.63;6.15;;;;;;;10.90;70.61;96241.63;5130480;27;20043;-69
2021/04/02 01:29:53;;;;;;;;;;;;;;;10.88;70.36;96241.16;5112695;28;20047;-68
2021/04/02 01:32:24;;;;;;;16.05;7.13;;;;;;;10.82;70.61;96243.25;5112719;28;19927;-68
2021/04/02 01:34:50;;;;;;;15.32;7.78;;;;;;;10.81;70.49;96238.13;5112391;28;20066;-68
2021/04/02 01:37:22;;;;;;;18.42;7.28;;;;;;;10.81;70.21;96241.66;5112297;28;20047;-68
2021/04/02 01:39:50;;;;;;;17.13;7.28;;;;;;;10.82;69.98;96245.19;5112744;28;20498;-68
2021/04/02 01:42:20;;;;;;;16.20;8.50;;;;;;;10.82;70.17;96243.25;5111518;28;20043;-68
2021/04/02 01:44:47;;;;;;;20.20;9.50;;;;;;;10.83;70.05;96238.59;5113059;28;20043;-68
2021/04/02 01:47:15;;;;;;;16.52;8.82;;;;;;;10.82;69.92;96237.00;5112443;27;20063;-68
2021/04/02 01:49:42;;;;;;;16.80;8.15;;;;;;;10.81;70.16;96243.59;5133626;27;20096;-68
2021/04/02 01:52:11;;;;;;;15.43;8.65;;;;;;;10.75;70.31;96234.75;5123281;27;20059;-68
2021/04/02 01:54:37;;;;;;;20.23;9.60;;;;;;;10.75;70.00;96244.84;5112397;28;20058;-68
2021/04/02 01:57:06;;;;;;;28.35;10.80;;;;;;;10.70;69.92;96238.47;5111477;28;20043;-68
2021/04/02 01:59:34;;;;;;;25.48;11.98;;;;;;;10.66;69.82;96236.69;5112201;28;20070;-68
2021/04/02 02:02:02;;;;;;;26.67;12.25;;;;;;;10.65;69.84;96246.78;5112065;28;20112;-68
2021/04/02 02:04:31;;;;;;;25.80;12.43;;;;;;;10.65;69.86;96235.91;5111501;28;20073;-68
2021/04/02 02:07:00;;;;;;;25.05;12.30;;;;;;;10.65;69.51;96229.66;5112624;28;20048;-68
2021/04/02 02:09:28;;;;;;;21.25;11.90;;;;;;;10.65;69.26;96235.91;5111086;28;20109;-68
2021/04/02 02:12:00;;;;;;;26.33;11.80;;;;;;;10.65;68.84;96235.09;5112717;28;20047;-68
2021/04/02 02:14:30;;;;;;;29.23;12.98;;;;;;;10.63;69.07;96227.22;5110898;28;20049;-68
2021/04/02 02:16:59;;;;;;;31.33;13.63;;;;;;;10.56;69.19;96237.03;5111772;28;20058;-68
2021/04/02 02:19:27;;;;;;;29.55;15.18;;;;;;;10.48;68.93;96235.88;5110903;28;20571;-68
2021/04/02 02:21:58;;;;;;;29.75;14.05;;;;;;;10.48;69.17;96246.78;5111614;28;20051;-67
2021/04/02 02:24:28;;;;;;;29.77;13.77;;;;;;;10.45;69.10;96247.44;5111681;28;20433;-67
2021/04/02 02:26:54;;;;;;;28.77;13.98;;;;;;;10.42;68.78;96243.41;5110964;28;20058;-67
2021/04/02 02:29:20;;;;;;;24.00;12.32;;;;;;;10.38;68.29;96247.88;5111649;28;20145;-67
2021/04/02 02:31:47;;;;;;;25.77;12.40;;;;;;;10.33;68.13;96249.97;5110869;28;20039;-67
2021/04/02 02:34:13;;;;;;;24.40;12.50;;;;;;;10.26;68.31;96261.31;5111664;28;20040;-67
2021/04/02 02:36:39;;;;;;;29.02;13.45;;;;;;;10.20;68.75;96257.94;5110946;28;20040;-67
2021/04/02 02:39:11;;;;;;;33.63;15.32;;;;;;;10.15;68.70;96258.06;5111390;28;20081;-67
2021/04/02 02:41:38;;;;;;;33.20;14.77;;;;;;;10.09;69.10;96261.28;5111295;28;20044;-69
2021/04/02 02:44:05;;;;;;;31.42;14.82;;;;;;;10.06;69.30;96257.25;5110675;28;20039;-68
2021/04/02 02:46:31;;;;;;;34.05;15.82;;;;;;;10.05;69.22;96254.84;5111506;28;20043;-67
2021/04/02 02:49:02;;;;;;;37.05;17.88;;;;;;;10.02;69.24;96253.56;5107403;28;20043;-67
2021/04/02 02:51:30;;;;;;;39.90;18.23;;;;;;;9.99;69.34;96262.38;5111517;28;20039;-67
2021/04/02 02:53:59;;;;;;;40.92;19.67;;;;;;;9.97;69.51;96259.16;5110556;28;20058;-67
2021/04/02 02:56:28;;;;;;;43.15;20.42;;;;;;;9.94;69.38;96254.34;5111368;28;20456;-68
2021/04/02 02:58:56;;;;;;;40.55;19.63;;;;;;;9.94;69.35;96259.78;5110507;28;20051;-67
2021/04/02 03:01:23;;;;;;;40.22;20.02;;;;;;;9.91;69.32;96261.22;5110619;28;20040;-67
2021/04/02 03:03:53;;;;;;;44.03;20.17;;;;;;;9.92;69.20;96262.03;5110261;28;20035;-67
2021/04/02 03:06:21;;;;;;;43.53;20.67;;;;;;;9.89;68.65;96262.66;5110349;28;20040;-67
2021/04/02 03:08:52;;;;;;;47.50;23.55;;;;;;;9.85;68.90;96256.22;5111160;28;20058;-67
2021/04/02 03:11:20;;;;;;;45.28;23.75;;;;;;;9.85;69.20;96261.69;5110201;28;20043;-68
2021/04/02 03:13:49;;;;;;;54.88;24.25;;;;;;;9.84;69.28;96265.53;5111279;28;20514;-67
2021/04/02 03:16:15;;;;;;;51.17;23.95;;;;;;;9.79;69.37;96257.50;5109688;28;20051;-67
2021/04/02 03:18:44;;;;;;;52.85;26.33;;;;;;;9.76;69.28;96269.00;5110801;28;20040;-67
2021/04/02 03:21:12;;;;;;;59.50;26.85;;;;;;;9.73;69.62;96275.06;5129599;27;20039;-68
2021/04/02 03:23:40;;;;;;;52.65;25.42;;;;;;;9.67;69.39;96277.13;5090628;28;20044;-67
2021/04/02 03:26:06;;;;;;;56.00;25.75;;;;;;;9.65;69.63;96282.88;5089591;28;20036;-68
2021/04/02 03:28:33;;;;;;;56.47;26.88;;;;;;;9.65;69.40;96280.16;5105585;28;20388;-67
2021/04/02 03:31:00;;;;;;;59.47;28.63;;;;;;;9.62;69.20;96286.22;5110864;28;20039;-67
2021/04/02 03:33:28;;;;;;;59.42;29.70;;;;;;;9.64;69.09;96283.19;5109828;28;20044;-67
2021/04/02 03:35:58;;;;;;;61.22;31.25;;;;;;;9.65;68.67;96284.78;5110909;28;20517;-67
2021/04/02 03:38:30;;;;;;;62.03;30.98;;;;;;;9.66;68.06;96284.50;5109496;28;20044;-67
2021/04/02 03:40:57;;;;;;;73.05;33.60;;;;;;;9.62;68.00;96280.78;5111132;28;20047;-67
2021/04/02 03:43:25;;;;;;;69.82;33.00;;;;;;;9.61;67.96;96284.63;5109461;28;20047;-68
2021/04/02 03:45:52;;;;;;;64.65;30.33;;;;;;;9.54;67.92;96284.25;5106175;28;20059;-67
2021/04/02 03:48:20;;;;;;;62.45;31.35;;;;;;;9.46;67.90;96289.69;5106899;28;20040;-67
2021/04/02 03:50:53;;;;;;;66.15;33.17;;;;;;;9.38;68.13;96278.44;5110020;28;20058;-67
2021/04/02 03:53:24;;;;;;;62.00;31.60;;;;;;;9.39;68.40;96287.38;5103036;28;20036;-69
2021/04/02 03:55:52;;;;;;;66.43;32.05;;;;;;;9.38;68.45;96286.59;5110061;28;20039;-68
2021/04/02 03:58:20;;;;;;;65.97;31.05;;;;;;;9.38;68.49;96291.22;5110578;28;20518;-67
2021/04/02 04:00:49;;;;;;;57.40;28.95;;;;;;;9.37;68.92;96295.06;5109643;28;20047;-67
2021/04/02 04:03:17;;;;;;;64.10;29.10;;;;;;;9.34;68.75;96295.66;5110410;28;20097;-67
2021/04/02 04:05:47;;;;;;;60.35;29.75;;;;;;;9.29;69.22;96293.06;5109726;28;20040;-67
2021/04/02 04:08:15;;;;;;;65.50;29.63;;;;;;;9.26;69.17;96291.00;5109841;28;20089;-67
2021/04/02 04:10:44;;;;;;;57.08;28.38;;;;;;;9.24;69.46;96290.50;5110173;28;20612;-67
2021/04/02 04:13:13;;;;;;;60.58;30.50;;;;;;;9.13;69.49;96301.66;5109671;28;20046;-70
2021/04/02 04:15:41;;;;;;;65.85;31.60;;;;;;;9.10;69.45;96304.97;5111616;28;20040;-69
2021/04/02 04:18:09;;;;;;;69.32;32.92;;;;;;;9.08;69.69;96304.47;5113253;28;20732;-70
2021/04/02 04:20:37;;;;;;;71.22;32.97;;;;;;;9.06;69.42;96306.69;5114660;28;20039;-69
2021/04/02 04:23:06;;;;;;;66.85;32.40;;;;;;;9.03;69.28;96311.94;5112315;28;20036;-68
2021/04/02 04:25:34;;;;;;;69.32;33.88;;;;;;;9.02;69.53;96308.41;5114427;28;20506;-67
2021/04/02 04:28:01;;;;;;;70.95;34.00;;;;;;;8.99;69.17;96311.75;5113586;28;20047;-67
2021/04/02 04:30:29;;;;;;;69.53;33.97;;;;;;;8.96;69.75;96312.38;5113650;28;20512;-67
2021/04/02 04:32:57;;;;;;;67.40;34.47;;;;;;;8.94;69.57;96320.03;5113830;28;20036;-67
2021/04/02 04:35:25;;;;;;;71.22;35.80;;;;;;;8.92;69.42;96311.38;5113220;28;20611;-67
2021/04/02 04:37:52;;;;;;;74.00;35.33;;;;;;;8.89;69.63;96318.22;5114085;28;20042;-67
2021/04/02 04:40:22;;;;;;;68.78;35.40;;;;;;;8.87;69.42;96317.75;5112824;28;20066;-67
2021/04/02 04:42:48;;;;;;;71.53;36.60;;;;;;;8.82;69.77;96322.47;5114056;28;20490;-68
2021/04/02 04:45:18;;;;;;;74.53;36.67;;;;;;;8.81;70.22;96326.31;5112516;28;20047;-67
2021/04/02 04:47:44;;;;;;;73.00;36.47;;;;;;;8.78;70.77;96329.66;5113830;28;20048;-67
2021/04/02 04:50:12;;;;;;;68.53;34.67;;;;;;;8.77;70.59;96319.88;5112498;28;20036;-67
2021/04/02 04:52:44;;;;;;;65.00;33.67;;;;;;;8.81;70.59;96337.16;5113162;28;20046;-67
2021/04/02 04:55:11;;;;;;;70.25;34.97;;;;;;;8.82;70.64;96333.34;5113119;28;20509;-68
2021/04/02 04:57:41;;;;;;;74.85;36.55;;;;;;;8.82;70.72;96338.75;5113151;28;20058;-67
2021/04/02 05:00:08;;;;;;;65.35;33.53;;;;;;;8.82;70.73;96341.47;5113181;28;20052;-68
2021/04/02 05:02:37;;;;;;;69.30;35.45;;;;;;;8.79;70.50;96345.63;5112741;28;20039;-68
2021/04/02 05:05:04;;;;;;;66.25;35.63;;;;;;;8.81;70.48;96345.31;5113626;28;20040;-69
2021/04/02 05:07:32;;;;;;;65.82;35.10;;;;;;;8.79;70.30;96342.09;5112568;28;20040;-68
2021/04/02 05:09:59;;;;;;;73.15;36.80;;;;;;;8.78;70.58;96345.94;5113592;28;20031;-68
2021/04/02 05:12:26;;;;;;;66.55;36.85;;;;;;;8.78;70.37;96354.09;5112349;28;20105;-68
2021/04/02 05:14:54;;;;;;;71.13;35.10;;;;;;;8.79;70.35;96352.97;5113261;28;20685;-68
2021/04/02 05:17:21;;;;;;;64.47;34.83;;;;;;;8.79;70.14;96351.06;5112484;28;20040;-67
2021/04/02 05:19:50;;;;;;;69.45;35.63;;;;;;;8.75;70.01;96354.69;5113008;28;20036;-68
2021/04/02 05:22:16;;;;;;;67.53;34.95;;;;;;;8.67;70.20;96356.22;5112476;28;20036;-68
2021/04/02 05:24:42;;;;;;;64.05;32.72;;;;;;;8.62;70.65;96362.56;5112313;28;20047;-68
2021/04/02 05:27:08;;;;;;;58.20;30.77;;;;;;;8.66;70.71;96365.44;5112518;27;20047;-68
2021/04/02 05:29:34;;;;;;;54.42;28.70;;;;;;;8.68;70.31;96370.59;5112386;28;20109;-67
2021/04/02 05:32:01;;;;;;;55.55;28.73;;;;;;;8.75;70.17;96370.97;5113723;28;20050;-68
2021/04/02 05:34:27;;;;;;;51.22;27.50;;;;;;;8.80;69.85;96368.94;5111727;28;20040;-67
2021/04/02 05:36:53;;;;;;;51.88;26.88;;;;;;;8.86;69.69;96372.34;5113013;28;20073;-68
2021/04/02 05:39:19;;;;;;;48.33;25.75;;;;;;;8.82;69.26;96376.78;5111860;28;20051;-68
2021/04/02 05:41:51;;;;;;;46.72;24.27;;;;;;;8.84;68.95;96385.44;5112470;28;20044;-68
2021/04/02 05:44:20;;;;;;;40.67;23.65;;;;;;;8.89;68.68;96386.13;5112350;28;20040;-67
2021/04/02 05:46:48;;;;;;;42.47;23.65;;;;;;;8.94;69.29;96387.94;5112283;28;20043;-68
2021/04/02 05:49:20;;;;;;;43.90;24.02;;;;;;;8.96;68.86;96391.13;5112355;28;20065;-68
2021/04/02 05:51:47;;;;;;;43.65;23.00;;;;;;;8.97;68.45;96394.66;5111126;28;20044;-68
2021/04/02 05:54:16;;;;;;;40.60;23.67;;;;;;;9.04;68.53;96395.84;5112631;28;20051;-67
2021/04/02 05:56:43;;;;;;;42.50;23.88;;;;;;;9.02;68.47;96398.03;5111679;28;20054;-68
2021/04/02 05:59:09;;;;;;;42.55;22.42;;;;;;;9.06;68.60;96400.97;5112018;28;20038;-68
2021/04/02 06:01:35;;;;;;;44.30;24.02;;;;;;;9.09;68.84;96403.88;5111862;28;20575;-68
2021/04/02 06:04:01;;;;;;;43.67;24.55;;;;;;;9.10;68.45;96410.91;5111670;28;20047;-69
2021/04/02 06:06:28;;;;;;;45.97;23.90;;;;;;;9.09;68.72;96403.88;5112218;28;20051;-68
2021/04/02 06:08:55;;;;;;;42.55;24.10;;;;;;;9.10;69.03;96405.47;5111755;28;20040;-68
2021/04/02 06:11:21;;;;;;;42.50;23.67;;;;;;;9.18;68.85;96411.28;5111980;28;20047;-68
2021/04/02 06:13:47;;;;;;;41.72;23.83;;;;;;;9.21;68.52;96416.09;5111289;28;20050;-68
2021/04/02 06:16:13;;;;;;;43.22;24.65;;;;;;;9.26;68.38;96413.28;5112193;28;20409;-68
2021/04/02 06:18:40;;;;;;;41.63;24.98;;;;;;;9.37;68.50;96409.19;5111283;28;20064;-68
2021/04/02 06:21:06;;;;;;;44.13;25.30;;;;;;;9.41;68.12;96410.19;5111598;28;20058;-68
2021/04/02 06:23:35;;;;;;;42.10;24.70;;;;;;;9.46;68.40;96410.06;5110953;28;20039;-67
2021/04/02 06:26:03;;;;;;;39.53;22.98;;;;;;;9.49;67.62;96404.00;5111404;28;20043;-71
2021/04/02 06:28:31;;;;;;;38.15;23.33;;;;;;;9.62;67.90;96411.28;5111531;28;20122;-68
2021/04/02 06:30:59;;;;;;;32.33;20.08;;;;;;;9.63;66.07;96412.09;5111551;28;20043;-67
2021/04/02 06:33:34;;;;;;;26.88;16.73;;;;;;;9.65;63.74;96407.94;5111330;28;20039;-68
2021/04/02 06:36:01;;;;;;;28.92;16.17;;;;;;;9.74;63.76;96418.06;5110698;28;20150;-69
2021/04/02 06:38:30;;;;;;;27.58;15.88;;;;;;;9.85;64.16;96413.97;5110881;28;20085;-67
2021/04/02 06:41:05;;;;;;;30.42;17.23;;;;;;;9.99;63.39;96411.97;5110871;28;20054;-67
2021/04/02 06:43:38;;;;;;;26.33;16.30;;;;;;;10.10;63.17;96409.78;5111686;28;20039;-67
2021/04/02 06:46:05;;;;;;;25.38;15.95;;;;;;;10.18;63.01;96411.75;5110723;28;20082;-67
2021/04/02 06:48:31;;;;;;;28.25;16.27;;;;;;;10.11;61.60;96416.84;5111307;28;20122;-67
2021/04/02 06:50:57;;;;;;;25.55;14.85;;;;;;;10.05;61.72;96413.44;5111331;28;20044;-67
2021/04/02 06:53:24;;;;;;;22.20;13.77;;;;;;;10.07;59.92;96421.28;5109826;28;20043;-67
2021/04/02 06:55:51;;;;;;;22.67;14.30;;;;;;;10.12;60.34;96419.22;5131742;27;20047;-67
2021/04/02 06:58:22;;;;;;;18.08;13.20;;;;;;;10.18;60.41;96415.28;5116763;27;20044;-67
2021/04/02 07:00:50;;;;;;;18.33;11.60;;;;;;;10.26;58.79;96415.66;5111620;28;20047;-67
2021/04/02 07:03:18;;;;;;;17.38;10.93;;;;;;;10.37;57.33;96415.06;5110082;28;20035;-67
2021/04/02 07:05:45;;;;;;;17.02;10.25;;;;;;;10.44;56.39;96406.44;5111541;28;20048;-69
2021/04/02 07:08:19;;;;;;;13.60;9.68;;;;;;;10.40;56.90;96408.19;5110170;28;20043;-67
2021/04/02 07:10:46;;;;;;;16.52;9.85;;;;;;;10.31;55.54;96418.25;5111070;28;20050;-67
2021/04/02 07:13:12;;;;;;;17.25;9.48;;;;;;;10.29;55.41;96413.13;5110380;28;20058;-67
2021/04/02 07:15:40;;;;;;;14.70;9.35;;;;;;;10.27;55.30;96419.97;5110228;28;20544;-67
2021/04/02 07:18:08;;;;;;;14.25;9.23;;;;;;;10.35;57.01;96411.06;5110778;28;20445;-67
2021/04/02 07:20:34;;;;;;;11.82;8.50;;;;;;;10.35;56.23;96417.28;5110021;28;20402;-67
2021/04/02 07:23:01;;;;;;;14.15;8.90;;;;;;;10.36;55.64;96418.91;5110587;27;20048;-67
2021/04/02 07:25:28;;;;;;;12.93;9.40;;;;;;;10.52;56.63;96408.38;5109755;28;20114;-67
2021/04/02 07:27:55;;;;;;;14.10;8.95;;;;;;;10.68;56.57;96420.44;5121337;27;20399;-67
2021/04/02 07:30:23;;;;;;;15.05;8.50;;;;;;;10.70;53.55;96418.22;5109610;28;20052;-67
2021/04/02 07:32:51;;;;;;;12.95;9.05;;;;;;;10.68;53.68;96417.72;5110612;28;20048;-67
2021/04/02 07:35:18;;;;;;;11.45;8.27;;;;;;;10.76;53.33;96420.78;5110200;28;20059;-67
2021/04/02 07:37:50;;;;;;;11.60;8.25;;;;;;;10.79;52.34;96414.69;5110333;28;20043;-67
2021/04/02 07:40:17;;;;;;;13.02;7.80;;;;;;;10.75;52.46;96416.44;5110598;28;20048;-68
2021/04/02 07:42:49;;;;;;;10.98;8.02;;;;;;;10.69;52.34;96416.59;5110059;28;20054;-69
2021/04/02 07:45:19;;;;;;;10.90;7.53;;;;;;;10.71;51.97;96427.19;5110510;28;20085;-67
2021/04/02 07:47:52;;;;;;;13.20;8.63;;;;;;;10.67;51.06;96427.00;5109688;28;20045;-68
2021/04/02 07:50:34;;;;;;;11.55;7.95;;;;;;;10.69;51.99;96427.47;5112858;28;20048;-68
2021/04/02 07:53:00;;;;;;;13.35;7.57;;;;;;;10.81;51.44;96428.81;5111782;28;20040;-68
2021/04/02 07:55:26;;;;;;;10.93;8.18;;;;;;;10.89;51.68;96430.72;5114120;28;20070;-68
2021/04/02 07:57:54;;;;;;;13.63;8.90;;;;;;;10.98;51.64;96434.28;5114301;28;20040;-68
2021/04/02 08:00:26;;;;;;;13.70;8.20;;;;;;;11.06;51.69;96436.19;5113484;28;20066;-67
2021/04/02 08:03:11;;;;;;;14.30;8.80;;;;;;;11.19;52.41;96442.63;5115004;28;20040;-67
2021/04/02 08:05:38;;;;;;;15.45;9.30;;;;;;;11.22;52.58;96442.81;5113797;28;20036;-68
2021/04/02 08:08:08;;;;;;;15.85;9.07;;;;;;;11.13;51.74;96435.75;5114302;28;20119;-68
2021/04/02 08:10:34;;;;;;;15.07;8.82;;;;;;;11.13;53.57;96442.00;5114109;28;20039;-68
2021/04/02 08:13:15;;;;;;;12.38;8.90;;;;;;;11.14;52.62;96443.59;5114363;28;20043;-68
2021/04/02 08:15:41;;;;;;;13.48;8.18;;;;;;;11.08;51.24;96444.06;5114298;28;20051;-67
2021/04/02 08:18:19;;;;;;;13.40;8.77;;;;;;;10.98;52.19;96450.63;5113187;28;20039;-68
2021/04/02 08:20:50;;;;;;;14.70;8.77;;;;;;;10.95;52.09;96448.53;5114904;28;20039;-68
2021/04/02 08:23:16;;;;;;;12.45;9.27;;;;;;;10.97;52.36;96449.03;5112746;28;20047;-68
2021/04/02 08:25:42;;;;;;;14.10;9.05;;;;;;;11.03;52.58;96453.19;5114326;28;20043;-68
2021/04/02 08:28:11;;;;;;;13.93;9.38;;;;;;;11.11;52.29;96451.59;5124624;27;20039;-68
2021/04/02 08:30:39;;;;;;;13.30;9.43;;;;;;;11.12;52.72;96445.84;5134489;27;20654;-68
2021/04/02 08:33:07;;;;;;;16.70;9.00;;;;;;;11.12;51.89;96445.84;5134072;27;20498;-69
2021/04/02 08:35:34;;;;;;;14.82;9.55;;;;;;;11.08;52.10;96450.31;5134120;27;20047;-68
2021/04/02 08:38:02;;;;;;;13.10;9.05;;;;;;;11.15;52.95;96450.66;5134798;27;20435;-68
2021/04/02 08:40:29;;;;;;;13.65;9.10;;;;;;;11.16;52.54;96452.25;5133545;27;20111;-68
2021/04/02 08:43:00;;;;;;;13.73;9.45;;;;;;;11.19;52.81;96448.09;5134762;27;20046;-68
2021/04/02 08:45:26;;;;;;;14.35;8.90;;;;;;;11.20;54.03;96450.50;5133494;27;20111;-68
2021/04/02 08:47:52;;;;;;;14.10;9.07;;;;;;;11.27;53.27;96451.94;5134663;27;20494;-68
2021/04/02 08:50:18;;;;;;;15.13;9.20;;;;;;;11.30;51.90;96451.31;5133271;27;20486;-68
2021/04/02 08:52:45;;;;;;;12.73;9.10;;;;;;;11.25;52.61;96449.53;5119714;27;20066;-68
2021/04/02 08:55:12;;;;;;;15.25;9.88;;;;;;;11.26;52.98;96447.59;5112954;28;20040;-68
2021/04/02 08:57:38;;;;;;;13.52;9.55;;;;;;;11.30;51.60;96443.94;5120439;27;20039;-68
2021/04/02 09:00:07;;;;;;;18.25;10.10;;;;;;;11.31;51.87;96442.00;5133627;27;20043;-68
2021/04/02 09:02:36;;;;;;;15.98;9.50;;;;;;;11.37;53.18;96440.72;5132399;27;20039;-68
2021/04/02 09:05:04;;;;;;;14.07;9.82;;;;;;;11.38;52.42;96436.84;5133885;27;20047;-68
2021/04/02 09:07:35;;;;;;;11.90;9.15;;;;;;;11.43;53.45;96440.25;5133073;27;20043;-68
2021/04/02 09:10:09;;;;;;;16.50;9.68;;;;;;;11.49;51.68;96438.16;5133903;27;20043;-69
2021/04/02 09:12:35;;;;;;;16.50;9.68;;;;;;;11.47;52.35;96434.94;5133338;27;20494;-68
2021/04/02 09:15:01;;;;;;;17.40;10.50;;;;;;;11.51;52.27;96438.63;5133334;27;20043;-68
2021/04/02 09:17:27;;;;;;;13.70;9.15;;;;;;;11.59;52.19;96440.56;5133274;27;20402;-68
2021/04/02 09:19:55;;;;;;;17.65;10.65;;;;;;;11.58;53.36;96440.88;5133379;27;20047;-68
2021/04/02 09:22:22;;;;;;;14.40;10.38;;;;;;;11.61;51.23;96429.31;5121747;27;20070;-67
2021/04/02 09:24:48;;;;;;;16.20;11.07;;;;;;;11.60;52.62;96431.25;5112102;28;20534;-68
2021/04/02 09:27:17;;;;;;;16.92;11.30;;;;;;;11.70;52.85;96428.19;5112437;28;20096;-68
2021/04/02 09:29:44;;;;;;;14.90;10.43;;;;;;;11.82;51.54;96424.03;5111959;28;20056;-68
2021/04/02 09:32:10;;;;;;;13.80;9.88;;;;;;;11.95;51.26;96417.56;5112838;28;20051;-68
2021/04/02 09:34:36;;;;;;;17.05;11.05;;;;;;;11.93;52.19;96426.09;5112033;28;20437;-67
2021/04/02 09:37:02;;;;;;;15.35;10.80;;;;;;;11.99;51.81;96422.06;5112470;28;20040;-68
2021/04/02 09:39:30;;;;;;;17.17;11.18;;;;;;;12.13;51.93;96419.13;5112513;28;20184;-69
2021/04/02 09:41:57;;;;;;;17.45;11.43;;;;;;;12.32;49.75;96416.03;5112724;28;20536;-68
2021/04/02 09:44:26;;;;;;;17.38;11.50;;;;;;;12.81;50.68;96416.41;5112075;28;20046;-68
2021/04/02 09:47:00;;;;;;;17.48;11.45;;;;;;;13.40;50.35;96412.81;5112101;28;20048;-67
2021/04/02 09:49:26;;;;;;;18.38;11.35;;;;;;;14.23;48.85;96406.34;5112848;28;20165;-67
2021/04/02 09:51:53;;;;;;;22.85;11.13;;;;;;;14.95;45.38;96406.75;5111636;28;20565;-68
2021/04/02 09:54:21;;;;;;;17.13;11.10;;;;;;;15.50;44.13;96402.50;5112611;28;20054;-68
2021/04/02 09:56:48;;;;;;;15.52;11.88;;;;;;;15.49;43.02;96403.63;5111347;27;20055;-68
2021/04/02 09:59:15;;;;;;;16.80;11.25;;;;;;;15.54;42.52;96401.44;5111918;28;20168;-68
2021/04/02 10:01:43;;;;;;;15.23;11.50;;;;;;;15.80;43.66;96403.78;5111589;28;20050;-68
2021/04/02 10:04:10;;;;;;;18.00;11.75;;;;;;;15.81;45.32;96397.13;5111394;28;20044;-69
2021/04/02 10:06:36;;;;;;;19.77;12.20;;;;;;;16.08;41.48;96386.50;5111927;28;20043;-68
2021/04/02 10:09:04;;;;;;;19.27;13.07;;;;;;;15.88;41.16;96386.34;5111261;28;20813;-69
2021/04/02 10:11:31;;;;;;;20.05;12.80;;;;;;;15.95;41.53;96385.75;5112477;28;20044;-68
2021/04/02 10:13:57;;;;;;;18.83;12.57;;;;;;;15.85;42.57;96378.81;5111198;28;20040;-68
2021/04/02 10:16:24;;;;;;;19.67;13.43;;;;;;;15.96;41.23;96379.09;5111967;28;20047;-68
2021/04/02 10:18:51;;;;;;;20.75;13.18;;;;;;;15.86;42.23;96369.41;5111382;28;20043;-68
2021/04/02 10:21:17;;;;;;;20.23;13.15;;;;;;;16.05;42.50;96370.69;5111529;28;20055;-68
2021/04/02 10:23:43;;;;;;;17.50;12.68;;;;;;;16.19;42.69;96371.06;5111143;28;20050;-67
2021/04/02 10:26:10;;;;;;;18.13;12.35;;;;;;;16.37;41.62;96361.31;5111278;28;20649;-67
2021/04/02 10:28:36;;;;;;;22.40;13.07;;;;;;;16.40;42.69;96365.31;5126851;27;20050;-67
2021/04/02 10:31:02;;;;;;;19.13;13.05;;;;;;;16.13;43.46;96361.47;5131559;27;20505;-68
2021/04/02 10:33:29;;;;;;;19.10;12.93;;;;;;;16.24;40.81;96351.59;5131959;27;20558;-67
2021/04/02 10:35:56;;;;;;;19.25;12.32;;;;;;;16.12;41.63;96360.69;5131301;27;20043;-67
2021/04/02 10:38:22;;;;;;;20.25;13.60;;;;;;;16.13;42.29;96355.97;5131957;27;20133;-69
2021/04/02 10:40:48;;;;;;;20.00;13.63;;;;;;;16.10;41.85;96345.72;5131322;27;20043;-67
2021/04/02 10:43:14;;;;;;;18.23;12.38;;;;;;;16.33;41.20;96349.44;5131887;27;20047;-67
2021/04/02 10:45:40;;;;;;;18.70;13.18;;;;;;;16.40;42.11;96344.13;5131260;27;20066;-67
2021/04/02 10:48:08;;;;;;;20.05;12.85;;;;;;;16.15;42.27;96345.44;5131787;27;20130;-67
2021/04/02 10:50:35;;;;;;;18.70;12.85;;;;;;;16.25;43.17;96352.38;5131603;27;20047;-68
2021/04/02 10:53:02;;;;;;;18.63;13.10;;;;;;;16.34;40.86;96342.81;5115110;27;20070;-67
2021/04/02 10:55:28;;;;;;;21.45;13.65;;;;;;;16.49;40.93;96330.19;5110639;28;20043;-67
2021/04/02 10:57:54;;;;;;;19.55;13.13;;;;;;;16.46;41.50;96341.09;5109985;28;20048;-67
2021/04/02 11:00:23;;;;;;;23.83;14.10;;;;;;;16.18;43.08;96331.00;5110598;28;20051;-67
2021/04/02 11:02:49;;;;;;;21.33;13.75;;;;;;;15.75;42.25;96329.91;5110492;28;20059;-67
2021/04/02 11:05:16;;;;;;;21.77;14.02;;;;;;;15.72;43.49;96327.88;5110918;28;20052;-67
2021/04/02 11:07:42;;;;;;;20.27;13.90;;;;;;;15.91;43.57;96325.22;5110155;28;20039;-67
2021/04/02 11:10:11;;;;;;;22.10;13.38;;;;;;;16.01;42.14;96317.63;5111153;28;20131;-67
2021/04/02 11:12:38;;;;;;;18.83;12.70;;;;;;;15.95;42.84;96316.28;5110235;28;20055;-67
2021/04/02 11:15:06;;;;;;;19.00;12.23;;;;;;;15.85;41.55;96312.13;5110725;28;20043;-67
2021/04/02 11:17:32;;;;;;;20.25;12.18;;;;;;;15.67;41.53;96314.41;5110564;28;20036;-67
2021/04/02 11:20:00;;;;;;;15.85;11.10;;;;;;;15.47;41.34;96318.13;5110888;28;20044;-67
2021/04/02 11:22:27;;;;;;;19.80;12.38;;;;;;;15.39;42.19;96319.88;5110263;28;20040;-67
2021/04/02 11:24:53;;;;;;;19.33;12.13;;;;;;;15.44;44.01;96316.06;5109802;28;20067;-67
2021/04/02 11:27:20;;;;;;;16.23;11.25;;;;;;;15.59;42.36;96313.38;5115200;28;20043;-69